createdAt,value
2019-02-19T00:00:25.841Z,44.60
2019-02-19T00:02:56.157Z,44.90
2019-02-19T00:05:26.431Z,45.63
2019-02-19T00:07:56.702Z,48.13
2019-02-19T00:10:26.974Z,45.50
2019-02-19T00:12:57.260Z,43.27
2019-02-19T00:15:27.530Z,44.50
2019-02-19T00:17:57.818Z,44.10
2019-02-19T00:20:28.257Z,42.97
2019-02-19T00:22:58.553Z,42.47
2019-02-19T00:25:28.825Z,45.97
2019-02-19T00:27:59.121Z,47.10
2019-02-19T00:30:29.568Z,45.83
2019-02-19T00:32:59.852Z,44.57
2019-02-19T00:35:30.146Z,46.43
2019-02-19T00:38:00.498Z,45.00
2019-02-19T00:40:30.803Z,44.27
2019-02-19T00:43:01.125Z,43.33
2019-02-19T00:45:31.399Z,43.53
2019-02-19T00:48:01.688Z,43.90
2019-02-19T00:50:32.310Z,44.20
2019-02-19T00:53:02.605Z,43.40
2019-02-19T00:55:34.230Z,43.83
2019-02-19T00:58:04.494Z,47.30
2019-02-19T01:00:34.768Z,44.67
2019-02-19T01:03:05.166Z,47.07
2019-02-19T01:05:35.468Z,44.57
2019-02-19T01:08:05.762Z,44.33
2019-02-19T01:10:36.058Z,46.90
2019-02-19T01:13:06.392Z,47.17
2019-02-19T01:15:36.685Z,42.47
2019-02-19T01:18:07.345Z,42.30
2019-02-19T01:20:37.637Z,42.63
2019-02-19T01:23:07.898Z,44.00
2019-02-19T01:25:38.212Z,44.33
2019-02-19T01:28:08.497Z,42.23
2019-02-19T01:30:38.798Z,47.47
2019-02-19T01:33:09.107Z,47.97
2019-02-19T01:35:39.407Z,48.43
2019-02-19T01:38:09.687Z,48.70
2019-02-19T01:40:39.975Z,47.00
2019-02-19T01:43:10.281Z,47.63
2019-02-19T01:45:40.574Z,44.37
2019-02-19T01:48:10.926Z,48.07
2019-02-19T01:50:41.196Z,44.93
2019-02-19T01:53:11.522Z,46.00
2019-02-19T01:55:41.825Z,46.27
2019-02-19T01:58:12.226Z,46.10
2019-02-19T02:00:42.518Z,47.23
2019-02-19T02:03:12.816Z,46.63
2019-02-19T02:05:43.104Z,46.10
2019-02-19T02:08:13.836Z,49.00
2019-02-19T02:10:44.182Z,46.83
2019-02-19T02:13:14.524Z,44.93
2019-02-19T02:15:44.800Z,44.33
2019-02-19T02:18:15.095Z,45.07
2019-02-19T02:20:45.427Z,44.83
2019-02-19T02:23:15.707Z,43.37
2019-02-19T02:25:45.974Z,42.80
2019-02-19T02:28:16.341Z,43.17
2019-02-19T02:30:46.613Z,43.67
2019-02-19T02:33:16.910Z,44.00
2019-02-19T02:35:47.200Z,43.60
2019-02-19T02:38:17.545Z,44.67
2019-02-19T02:40:47.808Z,44.10
2019-02-19T02:43:18.108Z,42.37
2019-02-19T02:45:53.381Z,41.17
2019-02-19T02:48:23.305Z,41.00
2019-02-19T02:50:53.595Z,41.10
2019-02-19T02:53:23.887Z,41.47
2019-02-19T02:55:54.184Z,41.43
2019-02-19T02:58:24.518Z,43.63
2019-02-19T03:00:54.809Z,42.43
2019-02-19T03:03:25.103Z,40.17
2019-02-19T03:06:01.427Z,39.23
2019-02-19T03:08:32.691Z,40.83
2019-02-19T03:11:02.974Z,41.10
2019-02-19T03:13:33.291Z,40.87
2019-02-19T03:16:03.584Z,41.90
2019-02-19T03:18:34.623Z,40.10
2019-02-19T03:21:04.902Z,41.10
2019-02-19T03:23:35.224Z,39.43
2019-02-19T03:26:05.493Z,39.27
2019-02-19T03:28:35.795Z,39.70
2019-02-19T03:31:06.085Z,36.83
2019-02-19T03:33:37.339Z,37.73
2019-02-19T03:36:07.622Z,37.20
2019-02-19T03:38:37.909Z,38.53
2019-02-19T03:41:08.311Z,37.60
2019-02-19T03:43:38.583Z,38.30
2019-02-19T03:46:12.113Z,39.43
2019-02-19T03:48:40.843Z,39.33
2019-02-19T03:51:12.256Z,39.67
2019-02-19T03:53:42.544Z,37.90
2019-02-19T03:56:12.832Z,37.73
2019-02-19T03:58:43.130Z,37.63
2019-02-19T04:01:13.401Z,36.50
2019-02-19T04:03:43.754Z,35.70
2019-02-19T04:06:14.036Z,36.83
2019-02-19T04:08:44.361Z,36.33
2019-02-19T04:11:14.647Z,36.33
2019-02-19T04:13:44.896Z,36.10
2019-02-19T04:16:21.338Z,38.57
2019-02-19T04:18:48.242Z,40.70
2019-02-19T04:21:18.540Z,38.13
2019-02-19T04:23:48.841Z,45.97
2019-02-19T04:26:19.130Z,37.80
2019-02-19T04:28:49.401Z,42.83
2019-02-19T04:31:19.674Z,40.63
2019-02-19T04:33:49.937Z,39.23
2019-02-19T04:36:20.208Z,40.20
2019-02-19T04:38:50.509Z,39.83
2019-02-19T04:41:20.782Z,40.33
2019-02-19T04:43:51.079Z,35.10
2019-02-19T04:46:30.833Z,36.00
2019-02-19T04:48:53.340Z,37.37
2019-02-19T04:51:23.635Z,33.33
2019-02-19T04:53:53.947Z,34.33
2019-02-19T04:56:24.492Z,31.77
2019-02-19T04:58:54.774Z,33.27
2019-02-19T05:01:25.071Z,33.23
2019-02-19T05:03:56.902Z,34.57
2019-02-19T05:06:27.202Z,33.83
2019-02-19T05:08:57.929Z,34.00
2019-02-19T05:11:28.688Z,30.80
2019-02-19T05:13:59.012Z,33.27
2019-02-19T05:16:29.285Z,30.73
2019-02-19T05:18:59.628Z,30.53
2019-02-19T05:21:29.960Z,31.07
2019-02-19T05:24:00.317Z,30.37
2019-02-19T05:26:30.632Z,33.20
2019-02-19T05:29:01.034Z,33.40
2019-02-19T05:31:31.313Z,32.47
2019-02-19T05:34:02.731Z,31.97
2019-02-19T05:36:33.082Z,34.67
2019-02-19T05:39:04.860Z,34.67
2019-02-19T05:41:36.066Z,40.73
2019-02-19T05:44:06.626Z,37.77
2019-02-19T05:46:36.962Z,36.87
2019-02-19T05:49:07.294Z,38.97
2019-02-19T05:51:37.559Z,44.17
2019-02-19T05:54:07.859Z,39.83
2019-02-19T05:56:38.144Z,37.17
2019-02-19T05:59:08.492Z,37.50
2019-02-19T06:01:39.041Z,36.97
2019-02-19T06:04:09.332Z,37.40
2019-02-19T06:06:39.711Z,39.37
2019-02-19T06:09:10.023Z,37.73
2019-02-19T06:11:40.445Z,38.20
2019-02-19T06:14:10.736Z,37.80
2019-02-19T06:16:41.056Z,35.70
2019-02-19T06:19:11.958Z,39.47
2019-02-19T06:21:42.246Z,39.40
2019-02-19T06:24:12.569Z,39.33
2019-02-19T06:26:43.257Z,38.73
2019-02-19T06:29:13.547Z,38.00
2019-02-19T06:31:43.850Z,40.67
2019-02-19T06:34:14.398Z,40.80
2019-02-19T06:36:45.006Z,41.13
2019-02-19T06:39:15.466Z,39.70
2019-02-19T06:41:46.114Z,42.50
2019-02-19T06:44:16.364Z,46.17
2019-02-19T06:46:47.656Z,47.43
2019-02-19T06:49:17.975Z,49.27
2019-02-19T06:51:49.418Z,50.73
2019-02-19T06:54:19.719Z,54.03
2019-02-19T06:56:50.013Z,50.87
2019-02-19T06:59:20.289Z,51.13
2019-02-19T07:02:10.808Z,50.63
2019-02-19T07:04:42.879Z,45.43
2019-02-19T07:07:13.199Z,44.73
2019-02-19T07:09:43.490Z,42.47
2019-02-19T07:12:13.800Z,42.13
2019-02-19T07:14:44.105Z,39.73
2019-02-19T07:17:15.935Z,41.07
2019-02-19T07:19:46.362Z,37.77
2019-02-19T07:22:16.664Z,36.90
2019-02-19T07:24:46.947Z,37.77
2019-02-19T07:27:17.245Z,43.20
2019-02-19T07:29:47.543Z,51.43
2019-02-19T07:32:17.825Z,42.23
2019-02-19T07:34:48.120Z,38.50
2019-02-19T07:37:18.391Z,40.20
2019-02-19T07:39:48.743Z,37.53
2019-02-19T07:42:19.041Z,35.70
2019-02-19T07:44:49.310Z,36.97
2019-02-19T07:47:24.687Z,32.00
2019-02-19T07:49:51.610Z,31.17
2019-02-19T07:52:21.896Z,31.27
2019-02-19T07:54:52.171Z,31.40
2019-02-19T07:57:22.630Z,30.47
2019-02-19T07:59:52.944Z,28.63
2019-02-19T08:02:23.471Z,29.37
2019-02-19T08:04:53.927Z,29.73
2019-02-19T08:07:24.177Z,29.43
2019-02-19T08:09:54.504Z,30.00
2019-02-19T08:12:26.234Z,29.40
2019-02-19T08:14:57.653Z,31.47
2019-02-19T08:17:33.248Z,29.13
2019-02-19T08:20:01.622Z,28.80
2019-02-19T08:22:32.173Z,29.73
2019-02-19T08:25:02.473Z,28.30
2019-02-19T08:27:32.760Z,27.13
2019-02-19T08:30:03.079Z,28.00
2019-02-19T08:32:33.454Z,26.00
2019-02-19T08:35:03.765Z,25.13
2019-02-19T08:37:34.079Z,24.83
2019-02-19T08:40:05.017Z,24.97
2019-02-19T08:42:35.315Z,24.87
2019-02-19T08:45:07.533Z,25.43
2019-02-19T08:47:42.591Z,24.63
2019-02-19T08:50:10.883Z,25.60
2019-02-19T08:52:41.130Z,25.63
2019-02-19T08:55:11.419Z,28.37
2019-02-19T08:57:41.747Z,23.83
2019-02-19T09:00:12.152Z,24.33
2019-02-19T09:02:44.062Z,24.23
2019-02-19T09:05:14.378Z,25.47
2019-02-19T09:07:44.650Z,25.53
2019-02-19T09:10:15.316Z,23.70
2019-02-19T09:12:46.677Z,25.73
2019-02-19T09:15:16.953Z,22.80
2019-02-19T09:17:51.906Z,22.43
2019-02-19T09:20:20.407Z,21.83
2019-02-19T09:22:50.700Z,23.20
2019-02-19T09:25:21.034Z,22.40
2019-02-19T09:27:51.344Z,21.33
2019-02-19T09:30:21.651Z,23.50
2019-02-19T09:32:51.954Z,23.63
2019-02-19T09:35:23.748Z,21.63
2019-02-19T09:37:54.113Z,22.63
2019-02-19T09:40:24.393Z,20.37
2019-02-19T09:42:54.683Z,20.73
2019-02-19T09:45:24.990Z,20.37
2019-02-19T09:48:01.145Z,21.00
2019-02-19T09:50:27.259Z,20.53
2019-02-19T09:53:00.023Z,21.40
2019-02-19T09:55:29.627Z,20.63
2019-02-19T09:58:00.174Z,20.07
2019-02-19T10:00:30.519Z,19.83
2019-02-19T10:03:00.805Z,21.27
2019-02-19T10:05:31.200Z,19.87
2019-02-19T10:08:01.495Z,21.23
2019-02-19T10:10:31.798Z,20.40
2019-02-19T10:13:02.133Z,19.97
2019-02-19T10:15:32.464Z,20.33
2019-02-19T10:18:09.885Z,20.17
2019-02-19T10:20:34.777Z,19.93
2019-02-19T10:23:05.077Z,19.93
2019-02-19T10:25:35.388Z,18.83
2019-02-19T10:28:05.687Z,19.63
2019-02-19T10:30:35.978Z,18.97
2019-02-19T10:33:06.283Z,21.23
2019-02-19T10:35:36.577Z,21.27
2019-02-19T10:38:08.489Z,19.50
2019-02-19T10:40:38.807Z,19.83
2019-02-19T10:43:09.081Z,19.03
2019-02-19T10:45:39.390Z,19.40
2019-02-19T10:48:09.683Z,19.87
2019-02-19T10:50:40.154Z,18.70
2019-02-19T10:53:10.519Z,18.43
2019-02-19T10:55:40.807Z,18.70
2019-02-19T10:58:11.588Z,17.90
2019-02-19T11:00:42.346Z,18.13
2019-02-19T11:03:12.624Z,18.13
2019-02-19T11:05:42.947Z,17.10
2019-02-19T11:08:13.221Z,16.90
2019-02-19T11:10:43.540Z,15.47
2019-02-19T11:13:13.893Z,15.53
2019-02-19T11:15:45.280Z,15.40
2019-02-19T11:18:16.650Z,15.63
2019-02-19T11:20:46.974Z,15.03
2019-02-19T11:23:17.291Z,14.30
2019-02-19T11:25:49.146Z,14.90
2019-02-19T11:28:19.447Z,14.80
2019-02-19T11:30:49.728Z,13.47
2019-02-19T11:33:20.025Z,15.20
2019-02-19T11:35:50.326Z,14.07
2019-02-19T11:38:20.619Z,14.13
2019-02-19T11:40:51.000Z,15.40
2019-02-19T11:43:22.836Z,15.47
2019-02-19T11:45:53.138Z,14.57
2019-02-19T11:48:23.440Z,15.17
2019-02-19T11:50:54.000Z,14.57
2019-02-19T11:53:25.289Z,15.83
2019-02-19T11:55:55.596Z,15.47
2019-02-19T11:58:25.974Z,14.87
2019-02-19T12:00:56.297Z,16.10
2019-02-19T12:03:26.598Z,15.90
2019-02-19T12:05:58.564Z,15.87
2019-02-19T12:08:28.842Z,17.37
2019-02-19T12:10:59.157Z,16.80
2019-02-19T12:13:29.450Z,17.73
2019-02-19T12:15:59.766Z,16.67
2019-02-19T12:18:31.158Z,18.07
2019-02-19T12:21:01.455Z,18.70
2019-02-19T12:23:31.796Z,18.10
2019-02-19T12:26:02.102Z,17.97
2019-02-19T12:28:32.551Z,19.83
2019-02-19T12:31:02.876Z,18.23
2019-02-19T12:33:33.172Z,17.20
2019-02-19T12:36:03.511Z,17.93
2019-02-19T12:38:33.806Z,17.40
2019-02-19T12:41:04.138Z,16.73
2019-02-19T12:43:34.420Z,17.17
2019-02-19T12:46:04.701Z,17.73
2019-02-19T12:48:34.995Z,17.60
2019-02-19T12:51:05.299Z,23.97
2019-02-19T12:53:35.598Z,20.23
2019-02-19T12:56:05.865Z,22.87
2019-02-19T12:58:36.164Z,26.67
2019-02-19T13:01:06.461Z,17.97
2019-02-19T13:03:36.762Z,18.30
2019-02-19T13:06:07.076Z,18.23
2019-02-19T13:08:40.169Z,20.20
2019-02-19T13:11:10.501Z,18.07
2019-02-19T13:13:40.800Z,19.13
2019-02-19T13:16:11.100Z,19.70
2019-02-19T13:18:41.395Z,21.77
2019-02-19T13:21:11.711Z,17.50
2019-02-19T13:23:42.024Z,16.93
2019-02-19T13:26:12.340Z,18.37
2019-02-19T13:28:42.634Z,16.57
2019-02-19T13:31:12.993Z,27.37
2019-02-19T13:33:43.310Z,17.33
2019-02-19T13:36:13.795Z,17.40
2019-02-19T13:38:45.483Z,16.77
2019-02-19T13:41:16.620Z,18.27
2019-02-19T13:43:46.917Z,16.70
2019-02-19T13:46:17.398Z,18.70
2019-02-19T13:48:47.697Z,16.83
2019-02-19T13:51:18.948Z,15.33
2019-02-19T13:54:07.089Z,16.93
2019-02-19T13:56:37.865Z,17.73
2019-02-19T13:59:08.829Z,17.23
2019-02-19T14:01:39.183Z,18.63
2019-02-19T14:04:09.501Z,18.83
2019-02-19T14:06:39.793Z,16.57
2019-02-19T14:09:10.105Z,19.67
2019-02-19T14:11:40.442Z,20.53
2019-02-19T14:14:15.361Z,22.53
2019-02-19T14:16:47.329Z,24.03
2019-02-19T14:19:21.367Z,25.53
2019-02-19T14:21:53.563Z,25.27
2019-02-19T14:24:26.496Z,24.43
2019-02-19T14:27:10.914Z,24.00
2019-02-19T14:29:49.847Z,24.37
2019-02-19T14:32:21.782Z,24.70
2019-02-19T14:34:56.437Z,23.57
2019-02-19T14:37:30.088Z,21.83
2019-02-19T14:40:10.504Z,19.50
2019-02-19T14:42:50.528Z,18.50
2019-02-19T14:45:29.804Z,19.17
2019-02-19T14:48:19.179Z,19.03
2019-02-19T14:51:01.586Z,21.00
2019-02-19T14:53:39.488Z,23.30
2019-02-19T14:56:14.126Z,19.40
2019-02-19T14:58:46.120Z,23.07
2019-02-19T15:01:18.055Z,24.67
2019-02-19T15:03:59.280Z,22.50
2019-02-19T15:06:37.244Z,21.23
2019-02-19T15:09:21.151Z,20.90
2019-02-19T15:11:53.104Z,20.07
2019-02-19T15:14:43.421Z,20.03
2019-02-19T15:19:58.880Z,19.07
2019-02-19T15:22:30.966Z,17.80
2019-02-19T15:25:11.794Z,17.63
2019-02-19T15:27:47.491Z,18.50
2019-02-19T15:30:22.435Z,19.43
2019-02-19T15:32:59.983Z,20.77
2019-02-19T15:35:50.136Z,20.67
2019-02-19T15:38:23.025Z,19.90
2019-02-19T15:40:55.942Z,18.97
2019-02-19T15:43:28.646Z,17.60
2019-02-19T15:46:00.746Z,16.70
2019-02-19T15:48:33.089Z,16.23
2019-02-19T15:51:06.991Z,17.70
2019-02-19T15:53:39.193Z,19.90
2019-02-19T15:56:27.544Z,18.40
2019-02-19T15:59:11.867Z,18.47
2019-02-19T16:01:43.776Z,17.93
2019-02-19T16:04:32.577Z,18.93
2019-02-19T16:07:08.031Z,18.90
2019-02-19T16:09:49.041Z,19.50
2019-02-19T16:12:24.686Z,20.93
2019-02-19T16:14:59.656Z,19.93
2019-02-19T16:17:31.942Z,21.27
2019-02-19T16:20:15.746Z,20.40
2019-02-19T16:22:47.869Z,19.33
2019-02-19T16:25:38.171Z,20.10
2019-02-19T16:28:10.196Z,20.60
2019-02-19T16:30:51.023Z,20.37
2019-02-19T16:33:31.938Z,20.73
2019-02-19T16:36:06.514Z,22.07
2019-02-19T16:38:41.600Z,21.13
2019-02-19T16:41:19.816Z,20.60
2019-02-19T16:43:57.916Z,20.27
2019-02-19T16:46:31.670Z,21.47
2019-02-19T16:49:03.666Z,20.47
2019-02-19T16:51:40.744Z,19.60
2019-02-19T16:54:28.867Z,20.00
2019-02-19T16:57:06.382Z,19.13
2019-02-19T16:59:51.375Z,17.80
2019-02-19T17:02:26.147Z,17.63
2019-02-19T17:05:13.316Z,16.63
2019-02-19T17:07:45.279Z,16.13
2019-02-19T17:10:17.507Z,215.97
2019-02-19T17:13:04.560Z,52.03
2019-02-19T17:15:45.462Z,72.23
2019-02-19T17:18:26.395Z,88.97
2019-02-19T17:21:07.251Z,61.07
2019-02-19T17:23:39.223Z,48.60
2019-02-19T17:26:27.597Z,39.97
2019-02-19T17:29:02.674Z,48.97
2019-02-19T17:31:46.923Z,33.87
2019-02-19T17:34:36.694Z,36.93
2019-02-19T17:37:25.626Z,22.17
2019-02-19T17:40:06.382Z,25.00
2019-02-19T17:42:47.342Z,16.27
2019-02-19T17:45:19.549Z,29.53
2019-02-19T17:48:03.777Z,30.20
2019-02-19T17:50:38.683Z,21.10
2019-02-19T17:53:11.034Z,19.63
2019-02-19T17:55:43.041Z,19.23
2019-02-19T17:58:15.261Z,19.07
2019-02-19T18:00:53.242Z,18.87
2019-02-19T18:03:25.155Z,16.47
2019-02-19T18:05:57.242Z,16.00
2019-02-19T18:08:41.554Z,16.50
2019-02-19T18:11:18.022Z,17.70
2019-02-19T18:13:54.159Z,15.40
2019-02-19T18:16:41.520Z,16.03
2019-02-19T18:19:11.816Z,15.70
2019-02-19T18:21:42.119Z,16.40
2019-02-19T18:24:12.426Z,16.23
2019-02-19T18:26:44.813Z,17.23
2019-02-19T18:29:17.649Z,16.97
2019-02-19T18:31:47.945Z,17.07
2019-02-19T18:34:18.300Z,17.07
2019-02-19T18:36:48.594Z,17.17
2019-02-19T18:39:20.968Z,16.83
2019-02-19T18:41:51.287Z,16.60
2019-02-19T18:44:21.576Z,17.23
2019-02-19T18:46:51.960Z,16.63
2019-02-19T18:49:22.244Z,16.13
2019-02-19T18:51:52.558Z,16.70
2019-02-19T18:54:22.867Z,15.23
2019-02-19T18:56:53.221Z,15.27
2019-02-19T18:59:23.999Z,15.27
2019-02-19T19:01:54.276Z,14.67
2019-02-19T19:04:24.566Z,13.90
2019-02-19T19:06:55.207Z,14.00
2019-02-19T19:09:25.509Z,14.23
2019-02-19T19:11:55.946Z,13.03
2019-02-19T19:14:26.404Z,12.60
2019-02-19T19:16:56.897Z,12.60
2019-02-19T19:19:27.544Z,11.37
2019-02-19T19:21:58.458Z,11.43
2019-02-19T19:24:28.769Z,10.67
2019-02-19T19:26:59.495Z,11.17
2019-02-19T19:29:30.034Z,9.93
2019-02-19T19:32:00.359Z,10.30
2019-02-19T19:34:30.672Z,9.77
2019-02-19T19:37:02.359Z,9.70
2019-02-19T19:39:32.720Z,9.90
2019-02-19T19:42:03.012Z,9.07
2019-02-19T19:44:34.845Z,9.53
2019-02-19T19:47:05.417Z,9.00
2019-02-19T19:49:35.995Z,9.80
2019-02-19T19:52:06.485Z,9.53
2019-02-19T19:54:37.162Z,9.40
2019-02-19T19:57:08.167Z,9.60
2019-02-19T19:59:38.922Z,9.53
2019-02-19T20:02:09.629Z,12.40
2019-02-19T20:04:41.018Z,12.93
2019-02-19T20:07:12.919Z,15.43
2019-02-19T20:09:44.193Z,17.43
2019-02-19T20:12:15.529Z,15.07
2019-02-19T20:14:47.095Z,15.20
2019-02-19T20:17:19.946Z,15.97
2019-02-19T20:19:51.157Z,13.57
2019-02-19T20:22:21.666Z,13.53
2019-02-19T20:24:53.062Z,13.03
2019-02-19T20:27:24.681Z,14.03
2019-02-19T20:29:55.944Z,13.47
2019-02-19T20:32:27.868Z,12.97
2019-02-19T20:34:59.025Z,12.07
2019-02-19T20:37:29.715Z,11.73
2019-02-19T20:42:26.544Z,12.23
2019-02-19T20:44:57.057Z,12.73
2019-02-19T20:47:27.438Z,12.33
2019-02-19T20:49:59.045Z,12.20
2019-02-19T20:52:29.767Z,11.77
2019-02-19T20:55:04.255Z,12.63
2019-02-19T20:57:34.835Z,12.97
2019-02-19T21:00:13.025Z,12.77
2019-02-19T21:02:46.560Z,12.37
2019-02-19T21:05:17.166Z,12.50
2019-02-19T21:07:47.791Z,12.33
2019-02-19T21:10:19.559Z,11.67
2019-02-19T21:12:49.869Z,12.60
2019-02-19T21:15:21.098Z,12.57
2019-02-19T21:17:52.031Z,12.20
2019-02-19T21:20:22.403Z,11.93
2019-02-19T21:22:52.793Z,11.87
2019-02-19T21:25:30.835Z,11.90
2019-02-19T21:27:55.178Z,13.00
2019-02-19T21:30:25.686Z,11.30
2019-02-19T21:32:55.961Z,12.13
2019-02-19T21:35:26.226Z,11.40
2019-02-19T21:37:57.175Z,12.07
2019-02-19T21:40:27.541Z,12.10
2019-02-19T21:42:57.811Z,11.57
2019-02-19T21:45:29.421Z,10.80
2019-02-19T21:48:00.193Z,12.10
2019-02-19T21:50:30.729Z,12.27
2019-02-19T21:53:01.279Z,12.00
2019-02-19T21:55:31.928Z,12.43
2019-02-19T21:58:02.362Z,12.93
2019-02-19T22:00:33.098Z,12.40
2019-02-19T22:03:03.267Z,12.97
2019-02-19T22:05:33.630Z,12.00
2019-02-19T22:08:04.596Z,12.43
2019-02-19T22:10:35.040Z,12.30
2019-02-19T22:13:05.396Z,12.07
2019-02-19T22:15:35.713Z,12.60
2019-02-19T22:18:06.025Z,11.73
2019-02-19T22:20:47.191Z,11.97
2019-02-19T22:23:17.874Z,11.23
2019-02-19T22:25:49.199Z,11.77
2019-02-19T22:28:19.445Z,11.00
2019-02-19T22:30:52.839Z,10.90
2019-02-19T22:33:24.611Z,11.80
2019-02-19T22:35:54.923Z,12.90
2019-02-19T22:38:25.194Z,11.77
2019-02-19T22:40:55.622Z,12.43
2019-02-19T22:43:26.795Z,12.10
2019-02-19T22:45:57.089Z,11.80
2019-02-19T22:48:27.377Z,11.37
2019-02-19T22:50:57.892Z,13.13
2019-02-19T22:53:38.943Z,12.90
2019-02-19T22:56:22.831Z,12.33
2019-02-19T22:58:53.110Z,13.73
2019-02-19T23:01:26.120Z,14.77
2019-02-19T23:03:56.604Z,19.73
2019-02-19T23:06:26.920Z,12.83
2019-02-19T23:08:57.263Z,11.00
2019-02-19T23:11:27.666Z,11.33
2019-02-19T23:13:57.952Z,11.83
2019-02-19T23:16:29.938Z,11.83
2019-02-19T23:19:00.230Z,12.50
2019-02-19T23:21:30.619Z,12.00
2019-02-19T23:24:00.911Z,13.70
2019-02-19T23:26:32.409Z,10.77
2019-02-19T23:29:02.757Z,11.50
2019-02-19T23:31:33.032Z,10.20
2019-02-19T23:34:03.311Z,9.30
2019-02-19T23:36:41.165Z,13.63
2019-02-19T23:39:11.454Z,18.73
2019-02-19T23:41:41.859Z,11.47
2019-02-19T23:44:12.284Z,11.97
2019-02-19T23:46:43.987Z,10.80
2019-02-19T23:49:15.436Z,10.27
2019-02-19T23:51:45.737Z,9.23
2019-02-19T23:54:16.012Z,8.57
2019-02-19T23:56:46.383Z,8.53
2019-02-19T23:59:16.681Z,9.93
